Menu Horizontal
luftaufnahme
Willkommen auf der Webseite der privaten Wetterstation -- Taufkirchen an der Pram -- 48°24'29,52" Nord  <>  13°32'13,20" Ost

Wetterdaten - Samstag, 21.05.2022 - Taufkirchen an der Pram     336 m über NN
Wetterdaten: aktuell Samstag, 21.05.2022 11:50
Datum Zeit Temp. A. Feuchte A. Luftdruck Regen Wind Sonnenschein UV Solar Windchill Empfang
21.05.2022 11:50 21,1 °C 61 % 1020,1 hPa 0,0 l/m² 11,9 km/h 10 min 6,9 UV-I 792 W/m² 19,3 °C 99 %
21.05.2022 11:40 21,3 °C 61 % 1020,0 hPa 0,0 l/m² 8,0 km/h 10 min 6,9 UV-I 817 W/m² 20,7 °C 100 %
21.05.2022 11:30 20,8 °C 63 % 1020,0 hPa 0,0 l/m² 11,3 km/h 10 min 6,6 UV-I 809 W/m² 19,1 °C 100 %
21.05.2022 11:20 20,4 °C 66 % 1020,1 hPa 0,0 l/m² 9,7 km/h 10 min 6,3 UV-I 761 W/m² 19,2 °C 100 %
21.05.2022 11:10 20,1 °C 66 % 1020,1 hPa 0,0 l/m² 8,0 km/h 10 min 5,1 UV-I 668 W/m² 19,5 °C 100 %
21.05.2022 11:00 19,8 °C 67 % 1020,2 hPa 0,0 l/m² 9,7 km/h 10 min 5,5 UV-I 761 W/m² 18,5 °C 100 %
21.05.2022 10:50 19,8 °C 68 % 1020,2 hPa 0,0 l/m² 12,9 km/h 10 min 4,9 UV-I 619 W/m² 17,5 °C 100 %
21.05.2022 10:40 19,6 °C 70 % 1020,2 hPa 0,0 l/m² 14,5 km/h 10 min 5,1 UV-I 691 W/m² 16,9 °C 100 %
21.05.2022 10:30 19,5 °C 71 % 1020,3 hPa 0,0 l/m² 8,0 km/h 10 min 4,9 UV-I 662 W/m² 18,8 °C 100 %
21.05.2022 10:20 19,2 °C 72 % 1020,4 hPa 0,0 l/m² 11,3 km/h 10 min 4,7 UV-I 648 W/m² 17,3 °C 100 %
21.05.2022 10:10 19,0 °C 72 % 1020,4 hPa 0,0 l/m² 11,3 km/h 10 min 4,4 UV-I 639 W/m² 17,1 °C 100 %
21.05.2022 10:00 18,8 °C 73 % 1020,4 hPa 0,0 l/m² 11,3 km/h 10 min 4,1 UV-I 614 W/m² 16,9 °C 100 %
21.05.2022 09:50 18,7 °C 74 % 1020,5 hPa 0,0 l/m² 9,7 km/h 10 min 3,9 UV-I 584 W/m² 17,3 °C 100 %
21.05.2022 09:40 18,8 °C 75 % 1020,4 hPa 0,0 l/m² 11,3 km/h 10 min 3,4 UV-I 598 W/m² 16,9 °C 100 %
21.05.2022 09:30 18,6 °C 76 % 1020,4 hPa 0,0 l/m² 14,5 km/h 10 min 3,3 UV-I 554 W/m² 15,7 °C 100 %
21.05.2022 09:20 18,4 °C 76 % 1020,3 hPa 0,0 l/m² 12,9 km/h 10 min 2,6 UV-I 321 W/m² 15,9 °C 100 %
21.05.2022 09:10 18,4 °C 76 % 1020,3 hPa 0,0 l/m² 11,3 km/h 10 min 2,1 UV-I 232 W/m² 16,4 °C 100 %
21.05.2022 09:00 18,7 °C 76 % 1020,1 hPa 0,0 l/m² 11,3 km/h 10 min 2,3 UV-I 441 W/m² 16,8 °C 100 %
21.05.2022 08:50 18,4 °C 76 % 1019,9 hPa 0,0 l/m² 11,3 km/h 10 min 2,3 UV-I 424 W/m² 16,4 °C 100 %
21.05.2022 08:40 18,4 °C 76 % 1019,8 hPa 0,0 l/m² 12,9 km/h 10 min 2,0 UV-I 396 W/m² 15,9 °C 100 %
21.05.2022 08:30 18,3 °C 78 % 1019,8 hPa 0,0 l/m² 9,7 km/h 10 min 1,8 UV-I 361 W/m² 16,9 °C 100 %
21.05.2022 08:20 18,2 °C 79 % 1019,8 hPa 0,0 l/m² 11,3 km/h 10 min 1,6 UV-I 359 W/m² 16,2 °C 100 %
21.05.2022 08:10 18,2 °C 80 % 1019,8 hPa 0,0 l/m² 16,1 km/h 10 min 1,2 UV-I 158 W/m² 14,8 °C 19 %
21.05.2022 08:00 18,2 °C 87 % 1019,6 hPa 0,0 l/m² 6,4 km/h 10 min 1,0 UV-I 230 W/m² 18,2 °C 0 %
21.05.2022 07:50 18,2 °C 87 % 1019,6 hPa 0,0 l/m² 6,4 km/h 10 min 1,0 UV-I 230 W/m² 18,2 °C 20 %
21.05.2022 07:40 18,2 °C 87 % 1019,5 hPa 0,0 l/m² 6,4 km/h 10 min 0,9 UV-I 239 W/m² 18,2 °C 100 %
21.05.2022 07:30 17,9 °C 90 % 1019,3 hPa 0,0 l/m² 4,8 km/h 10 min 0,8 UV-I 168 W/m² 17,9 °C 100 %
21.05.2022 07:20 17,8 °C 92 % 1019,2 hPa 0,0 l/m² 3,2 km/h 10 min 0,7 UV-I 170 W/m² 17,8 °C 100 %
21.05.2022 07:10 17,7 °C 92 % 1019,3 hPa 0,0 l/m² 1,6 km/h 0 min 0,4 UV-I 62 W/m² 17,7 °C 100 %
21.05.2022 07:00 17,8 °C 93 % 1019,1 hPa 0,0 l/m² 0,0 km/h 0 min 0,0 UV-I 30 W/m² 17,8 °C 100 %
21.05.2022 06:50 17,9 °C 93 % 1019,1 hPa 0,0 l/m² 0,0 km/h 0 min 0,0 UV-I 39 W/m² 17,9 °C 100 %
21.05.2022 06:40 17,8 °C 93 % 1018,9 hPa 0,0 l/m² 0,0 km/h 0 min 0,0 UV-I 41 W/m² 17,8 °C 100 %
21.05.2022 06:30 17,8 °C 93 % 1018,9 hPa 0,0 l/m² 0,0 km/h 0 min 0,0 UV-I 61 W/m² 17,8 °C 100 %
21.05.2022 06:20 17,7 °C 93 % 1018,7 hPa 0,0 l/m² 0,0 km/h 0 min 0,0 UV-I 54 W/m² 17,7 °C 100 %
21.05.2022 06:10 17,7 °C 93 % 1018,6 hPa 0,0 l/m² 0,0 km/h 0 min 0,0 UV-I 40 W/m² 17,7 °C 100 %
21.05.2022 06:00 17,8 °C 93 % 1018,6 hPa 0,0 l/m² 0,0 km/h 0 min 0,0 UV-I 21 W/m² 17,8 °C 100 %
21.05.2022 05:50 17,7 °C 93 % 1018,4 hPa 0,0 l/m² 0,0 km/h 0 min 0,0 UV-I 6 W/m² 17,7 °C 100 %
21.05.2022 05:40 17,6 °C 93 % 1018,4 hPa 0,0 l/m² 0,0 km/h 0 min 0,0 UV-I 3 W/m² 17,6 °C 100 %
21.05.2022 05:30 17,6 °C 93 % 1018,4 hPa 0,0 l/m² 0,0 km/h 0 min 0,0 UV-I 2 W/m² 17,6 °C 100 %
21.05.2022 05:20 17,7 °C 93 % 1018,3 hPa 0,0 l/m² 0,0 km/h 0 min 0,0 UV-I 0 W/m² 17,7 °C 100 %
21.05.2022 05:10 17,9 °C 93 % 1018,1 hPa 0,0 l/m² 0,0 km/h 0 min 0,0 UV-I 0 W/m² 17,9 °C 100 %
21.05.2022 05:00 17,9 °C 93 % 1017,9 hPa 0,0 l/m² 0,0 km/h 0 min 0,0 UV-I 0 W/m² 17,9 °C 100 %
21.05.2022 04:50 18,1 °C 93 % 1017,8 hPa 0,0 l/m² 0,0 km/h 0 min 0,0 UV-I 0 W/m² 18,1 °C 100 %
21.05.2022 04:40 18,2 °C 92 % 1017,8 hPa 0,0 l/m² 0,0 km/h 0 min 0,0 UV-I 0 W/m² 18,2 °C 100 %
21.05.2022 04:30 18,3 °C 92 % 1017,6 hPa 0,2 l/m² 0,0 km/h 0 min 0,0 UV-I 0 W/m² 18,3 °C 100 %
21.05.2022 04:20 18,3 °C 92 % 1017,7 hPa 0,0 l/m² 0,0 km/h 0 min 0,0 UV-I 0 W/m² 18,3 °C 100 %
21.05.2022 04:10 18,3 °C 91 % 1017,9 hPa 0,0 l/m² 0,0 km/h 0 min 0,0 UV-I 0 W/m² 18,3 °C 100 %
21.05.2022 04:00 18,4 °C 90 % 1017,6 hPa 0,0 l/m² 0,0 km/h 0 min 0,0 UV-I 0 W/m² 18,4 °C 100 %
21.05.2022 03:50 18,6 °C 89 % 1017,4 hPa 0,0 l/m² 1,6 km/h 0 min 0,0 UV-I 0 W/m² 18,6 °C 100 %
21.05.2022 03:40 18,7 °C 88 % 1017,4 hPa 0,4 l/m² 4,8 km/h 0 min 0,0 UV-I 0 W/m² 18,7 °C 100 %
21.05.2022 03:30 19,0 °C 86 % 1017,5 hPa 0,4 l/m² 14,5 km/h 0 min 0,0 UV-I 0 W/m² 16,2 °C 100 %
21.05.2022 03:20 19,2 °C 86 % 1017,5 hPa 1,0 l/m² 11,3 km/h 0 min 0,0 UV-I 0 W/m² 17,3 °C 100 %
21.05.2022 03:10 19,0 °C 89 % 1016,8 hPa 0,0 l/m² 6,4 km/h 0 min 0,0 UV-I 0 W/m² 19,0 °C 100 %
21.05.2022 03:00 19,2 °C 91 % 1016,8 hPa 0,6 l/m² 1,6 km/h 0 min 0,0 UV-I 0 W/m² 19,2 °C 100 %
21.05.2022 02:50 19,6 °C 93 % 1016,8 hPa 0,0 l/m² 0,0 km/h 0 min 0,0 UV-I 0 W/m² 19,6 °C 100 %
21.05.2022 02:40 19,6 °C 92 % 1016,5 hPa 0,2 l/m² 0,0 km/h 0 min 0,0 UV-I 0 W/m² 19,6 °C 100 %
21.05.2022 02:30 19,7 °C 92 % 1016,4 hPa 0,4 l/m² 0,0 km/h 0 min 0,0 UV-I 0 W/m² 19,7 °C 93 %
21.05.2022 02:20 19,8 °C 92 % 1016,2 hPa 0,0 l/m² 0,0 km/h 0 min 0,0 UV-I 0 W/m² 19,8 °C 100 %
21.05.2022 02:10 19,9 °C 91 % 1015,9 hPa 0,0 l/m² 0,0 km/h 0 min 0,0 UV-I 0 W/m² 19,9 °C 100 %
21.05.2022 02:00 20,1 °C 91 % 1015,9 hPa 0,0 l/m² 0,0 km/h 0 min 0,0 UV-I 0 W/m² 20,1 °C 100 %
21.05.2022 01:50 20,2 °C 91 % 1015,8 hPa 0,0 l/m² 0,0 km/h 0 min 0,0 UV-I 0 W/m² 20,2 °C 100 %
21.05.2022 01:40 20,4 °C 90 % 1015,5 hPa 0,0 l/m² 0,0 km/h 0 min 0,0 UV-I 0 W/m² 20,4 °C 100 %
21.05.2022 01:30 20,6 °C 89 % 1015,3 hPa 0,0 l/m² 0,0 km/h 0 min 0,0 UV-I 0 W/m² 20,6 °C 100 %
21.05.2022 01:20 20,7 °C 88 % 1015,4 hPa 0,0 l/m² 0,0 km/h 0 min 0,0 UV-I 0 W/m² 20,7 °C 100 %
21.05.2022 01:10 20,9 °C 87 % 1015,5 hPa 0,0 l/m² 0,0 km/h 0 min 0,0 UV-I 0 W/m² 20,9 °C 100 %
21.05.2022 01:00 21,1 °C 87 % 1015,5 hPa 0,0 l/m² 0,0 km/h 0 min 0,0 UV-I 0 W/m² 21,1 °C 100 %
21.05.2022 00:50 21,3 °C 85 % 1015,2 hPa 0,0 l/m² 0,0 km/h 0 min 0,0 UV-I 0 W/m² 21,3 °C 100 %
21.05.2022 00:40 21,7 °C 84 % 1015,5 hPa 0,2 l/m² 0,0 km/h 0 min 0,0 UV-I 0 W/m² 21,7 °C 100 %
21.05.2022 00:30 21,9 °C 82 % 1015,9 hPa 0,6 l/m² 1,6 km/h 0 min 0,0 UV-I 0 W/m² 21,9 °C 100 %
21.05.2022 00:20 22,3 °C 79 % 1015,2 hPa 0,4 l/m² 6,4 km/h 0 min 0,0 UV-I 0 W/m² 22,3 °C 100 %
21.05.2022 00:10 22,5 °C 80 % 1015,4 hPa 0,0 l/m² 0,0 km/h 0 min 0,0 UV-I 0 W/m² 22,5 °C 82 %
21.05.2022 00:00 22,7 °C 77 % 1014,7 hPa 0,0 l/m² 0,0 km/h 0 min 0,0 UV-I 0 W/m² 22,7 °C 100 %
20.05.2022 23:50 22,7 °C 76 % 1014,5 hPa 0,0 l/m² 1,6 km/h 0 min 0,0 UV-I 0 W/m² 22,7 °C 100 %
20.05.2022 23:40 22,5 °C 74 % 1014,4 hPa 0,0 l/m² 1,6 km/h 0 min 0,0 UV-I 0 W/m² 22,5 °C 100 %
20.05.2022 23:30 21,9 °C 78 % 1014,3 hPa 0,0 l/m² 1,6 km/h 0 min 0,0 UV-I 0 W/m² 21,9 °C 100 %
20.05.2022 23:20 21,4 °C 81 % 1013,9 hPa 0,0 l/m² 3,2 km/h 0 min 0,0 UV-I 0 W/m² 21,4 °C 100 %
20.05.2022 23:10 21,3 °C 81 % 1013,3 hPa 0,0 l/m² 0,0 km/h 0 min 0,0 UV-I 0 W/m² 21,3 °C 100 %
20.05.2022 23:00 21,4 °C 81 % 1013,2 hPa 0,0 l/m² 0,0 km/h 0 min 0,0 UV-I 0 W/m² 21,4 °C 100 %
20.05.2022 22:50 21,7 °C 81 % 1013,0 hPa 0,0 l/m² 0,0 km/h 0 min 0,0 UV-I 0 W/m² 21,7 °C 100 %
20.05.2022 22:40 21,8 °C 79 % 1012,8 hPa 0,0 l/m² 0,0 km/h 0 min 0,0 UV-I 0 W/m² 21,8 °C 100 %
20.05.2022 22:30 21,9 °C 79 % 1013,0 hPa 0,0 l/m² 0,0 km/h 0 min 0,0 UV-I 0 W/m² 21,9 °C 100 %
20.05.2022 22:20 21,9 °C 78 % 1013,1 hPa 0,0 l/m² 0,0 km/h 0 min 0,0 UV-I 0 W/m² 21,9 °C 100 %
20.05.2022 22:10 22,2 °C 79 % 1013,0 hPa 0,0 l/m² 0,0 km/h 0 min 0,0 UV-I 0 W/m² 22,2 °C 100 %
20.05.2022 22:00 22,8 °C 76 % 1012,8 hPa 0,0 l/m² 0,0 km/h 0 min 0,0 UV-I 0 W/m² 22,8 °C 100 %
20.05.2022 21:50 23,2 °C 75 % 1012,8 hPa 0,0 l/m² 0,0 km/h 0 min 0,0 UV-I 0 W/m² 23,2 °C 98 %
20.05.2022 21:40 23,6 °C 73 % 1012,7 hPa 0,0 l/m² 0,0 km/h 0 min 0,0 UV-I 0 W/m² 23,6 °C 100 %
20.05.2022 21:30 23,8 °C 74 % 1012,8 hPa 0,0 l/m² 0,3 km/h 0 min 0,0 UV-I 0 W/m² 23,8 °C 100 %
20.05.2022 21:20 24,3 °C 72 % 1013,0 hPa 0,0 l/m² 0,0 km/h 0 min 0,0 UV-I 0 W/m² 24,3 °C 100 %
20.05.2022 21:10 24,9 °C 67 % 1013,2 hPa 0,0 l/m² 0,0 km/h 0 min 0,0 UV-I 0 W/m² 24,9 °C 100 %
20.05.2022 21:00 25,4 °C 67 % 1013,2 hPa 0,0 l/m² 0,0 km/h 0 min 0,0 UV-I 0 W/m² 25,4 °C 100 %
20.05.2022 20:50 26,2 °C 66 % 1013,3 hPa 0,0 l/m² 0,0 km/h 0 min 0,0 UV-I 0 W/m² 26,2 °C 100 %
20.05.2022 20:40 26,7 °C 64 % 1013,3 hPa 0,0 l/m² 0,0 km/h 0 min 0,0 UV-I 2 W/m² 26,7 °C 100 %
20.05.2022 20:30 27,2 °C 63 % 1013,4 hPa 0,0 l/m² 0,0 km/h 0 min 0,0 UV-I 10 W/m² 27,2 °C 100 %
20.05.2022 20:20 27,7 °C 59 % 1013,5 hPa 0,0 l/m² 0,0 km/h 0 min 0,0 UV-I 16 W/m² 27,7 °C 100 %
20.05.2022 20:10 28,3 °C 56 % 1013,7 hPa 0,0 l/m² 0,0 km/h 0 min 0,0 UV-I 21 W/m² 28,3 °C 99 %
20.05.2022 20:00 28,9 °C 54 % 1013,9 hPa 0,0 l/m² 0,0 km/h 0 min 0,0 UV-I 23 W/m² 28,9 °C 100 %
20.05.2022 19:50 29,3 °C 53 % 1013,9 hPa 0,0 l/m² 0,0 km/h 0 min 0,0 UV-I 20 W/m² 29,3 °C 100 %
20.05.2022 19:40 29,7 °C 51 % 1014,0 hPa 0,0 l/m² 0,0 km/h 0 min 0,0 UV-I 20 W/m² 29,7 °C 100 %
20.05.2022 19:30 30,2 °C 51 % 1014,0 hPa 0,0 l/m² 0,0 km/h 0 min 0,0 UV-I 37 W/m² 30,2 °C 100 %
20.05.2022 19:20 30,4 °C 48 % 1013,9 hPa 0,0 l/m² 0,6 km/h 10 min 0,0 UV-I 119 W/m² 30,4 °C 100 %
20.05.2022 19:10 30,7 °C 46 % 1013,8 hPa 0,0 l/m² 0,4 km/h 10 min 0,5 UV-I 163 W/m² 30,7 °C 99 %
20.05.2022 19:00 30,8 °C 46 % 1013,9 hPa 0,0 l/m² 0,6 km/h 10 min 0,6 UV-I 148 W/m² 30,8 °C 100 %
20.05.2022 18:50 31,3 °C 44 % 1014,3 hPa 0,0 l/m² 0,9 km/h 10 min 0,7 UV-I 217 W/m² 31,3 °C 100 %
20.05.2022 18:40 31,8 °C 42 % 1014,6 hPa 0,0 l/m² 0,3 km/h 10 min 0,8 UV-I 271 W/m² 31,8 °C 99 %
20.05.2022 18:30 32,1 °C 40 % 1014,9 hPa 0,0 l/m² 0,7 km/h 10 min 0,9 UV-I 287 W/m² 32,1 °C 100 %
20.05.2022 18:20 32,7 °C 39 % 1015,1 hPa 0,0 l/m² 0,4 km/h 10 min 1,0 UV-I 317 W/m² 32,7 °C 100 %
20.05.2022 18:10 33,4 °C 38 % 1015,3 hPa 0,0 l/m² 0,1 km/h 10 min 1,2 UV-I 326 W/m² 33,4 °C 100 %
20.05.2022 18:00 33,7 °C 37 % 1015,5 hPa 0,0 l/m² 0,0 km/h 10 min 1,3 UV-I 358 W/m² 33,7 °C 100 %
20.05.2022 17:50 33,7 °C 35 % 1015,7 hPa 0,0 l/m² 0,2 km/h 10 min 1,5 UV-I 409 W/m² 33,7 °C 100 %
20.05.2022 17:40 33,6 °C 36 % 1015,8 hPa 0,0 l/m² 0,3 km/h 10 min 1,7 UV-I 437 W/m² 33,6 °C 100 %
20.05.2022 17:30 33,8 °C 35 % 1015,8 hPa 0,0 l/m² 0,4 km/h 10 min 1,9 UV-I 469 W/m² 33,8 °C 100 %
20.05.2022 17:20 33,8 °C 36 % 1016,0 hPa 0,0 l/m² 0,8 km/h 10 min 2,2 UV-I 495 W/m² 33,8 °C 99 %
20.05.2022 17:10 33,8 °C 38 % 1016,3 hPa 0,0 l/m² 0,3 km/h 10 min 2,3 UV-I 509 W/m² 33,8 °C 100 %
20.05.2022 17:00 33,7 °C 36 % 1016,5 hPa 0,0 l/m² 0,6 km/h 10 min 2,6 UV-I 536 W/m² 33,7 °C 100 %
20.05.2022 16:50 33,9 °C 38 % 1016,7 hPa 0,0 l/m² 0,2 km/h 10 min 2,8 UV-I 559 W/m² 33,9 °C 100 %
20.05.2022 16:40 33,8 °C 36 % 1016,8 hPa 0,0 l/m² 1,2 km/h 10 min 3,1 UV-I 584 W/m² 33,8 °C 100 %
20.05.2022 16:30 33,4 °C 36 % 1017,0 hPa 0,0 l/m² 0,3 km/h 10 min 3,4 UV-I 609 W/m² 33,4 °C 100 %
20.05.2022 16:20 32,9 °C 37 % 1017,3 hPa 0,0 l/m² 0,5 km/h 10 min 3,7 UV-I 628 W/m² 32,9 °C 100 %
20.05.2022 16:10 32,8 °C 36 % 1017,5 hPa 0,0 l/m² 1,2 km/h 10 min 3,9 UV-I 647 W/m² 32,8 °C 99 %
20.05.2022 16:00 33,3 °C 36 % 1017,5 hPa 0,0 l/m² 0,5 km/h 10 min 4,2 UV-I 662 W/m² 33,3 °C 99 %
20.05.2022 15:50 32,9 °C 37 % 1017,8 hPa 0,0 l/m² 0,3 km/h 10 min 4,5 UV-I 689 W/m² 32,9 °C 100 %
20.05.2022 15:40 32,3 °C 38 % 1018,0 hPa 0,0 l/m² 0,2 km/h 10 min 4,8 UV-I 705 W/m² 32,3 °C 100 %
20.05.2022 15:30 32,3 °C 39 % 1018,2 hPa 0,0 l/m² 1,0 km/h 10 min 5,0 UV-I 718 W/m² 32,3 °C 100 %
20.05.2022 15:20 32,1 °C 41 % 1018,4 hPa 0,0 l/m² 1,2 km/h 10 min 5,3 UV-I 735 W/m² 32,1 °C 100 %
20.05.2022 15:10 32,4 °C 38 % 1018,6 hPa 0,0 l/m² 0,6 km/h 10 min 5,5 UV-I 755 W/m² 32,4 °C 100 %
20.05.2022 15:00 32,2 °C 39 % 1018,7 hPa 0,0 l/m² 1,4 km/h 10 min 5,7 UV-I 753 W/m² 32,2 °C 100 %
20.05.2022 14:50 31,8 °C 40 % 1019,0 hPa 0,0 l/m² 0,2 km/h 10 min 6,0 UV-I 781 W/m² 31,8 °C 100 %
20.05.2022 14:40 31,9 °C 41 % 1019,1 hPa 0,0 l/m² 0,4 km/h 10 min 5,9 UV-I 745 W/m² 31,9 °C 99 %
20.05.2022 14:30 31,4 °C 41 % 1019,2 hPa 0,0 l/m² 0,1 km/h 10 min 6,1 UV-I 762 W/m² 31,4 °C 99 %
20.05.2022 14:20 30,9 °C 41 % 1019,4 hPa 0,0 l/m² 0,5 km/h 10 min 6,5 UV-I 802 W/m² 30,9 °C 100 %
20.05.2022 14:10 30,3 °C 46 % 1019,5 hPa 0,0 l/m² 1,4 km/h 10 min 6,6 UV-I 784 W/m² 30,3 °C 100 %
20.05.2022 14:00 30,7 °C 45 % 1019,7 hPa 0,0 l/m² 1,6 km/h 10 min 6,8 UV-I 805 W/m² 30,7 °C 100 %
20.05.2022 13:50 30,7 °C 44 % 1019,8 hPa 0,0 l/m² 0,7 km/h 10 min 6,9 UV-I 813 W/m² 30,7 °C 100 %
20.05.2022 13:40 30,3 °C 48 % 1020,0 hPa 0,0 l/m² 1,7 km/h 10 min 7,0 UV-I 814 W/m² 30,3 °C 100 %
20.05.2022 13:30 29,8 °C 49 % 1020,1 hPa 0,0 l/m² 2,3 km/h 10 min 7,1 UV-I 822 W/m² 29,8 °C 99 %
20.05.2022 13:20 29,9 °C 48 % 1020,4 hPa 0,0 l/m² 1,6 km/h 10 min 7,2 UV-I 821 W/m² 29,9 °C 99 %
20.05.2022 13:10 29,6 °C 48 % 1020,5 hPa 0,0 l/m² 1,0 km/h 10 min 7,1 UV-I 815 W/m² 29,6 °C 100 %
20.05.2022 13:00 29,7 °C 47 % 1020,6 hPa 0,0 l/m² 1,7 km/h 10 min 7,1 UV-I 808 W/m² 29,7 °C 100 %
20.05.2022 12:50 29,6 °C 48 % 1020,7 hPa 0,0 l/m² 0,6 km/h 10 min 7,1 UV-I 817 W/m² 29,6 °C 100 %
20.05.2022 12:40 29,3 °C 50 % 1020,9 hPa 0,0 l/m² 0,8 km/h 10 min 7,1 UV-I 812 W/m² 29,3 °C 100 %
20.05.2022 12:30 29,3 °C 51 % 1021,0 hPa 0,0 l/m² 0,4 km/h 10 min 6,9 UV-I 799 W/m² 29,3 °C 100 %
20.05.2022 12:20 29,2 °C 53 % 1021,1 hPa 0,0 l/m² 0,0 km/h 10 min 6,9 UV-I 806 W/m² 29,2 °C 100 %
20.05.2022 12:10 28,4 °C 51 % 1021,2 hPa 0,0 l/m² 1,1 km/h 10 min 6,8 UV-I 794 W/m² 28,4 °C 99 %
20.05.2022 12:00 27,8 °C 53 % 1021,4 hPa 0,0 l/m² 0,3 km/h 10 min 6,6 UV-I 779 W/m² 27,8 °C 100 %
_ Min-Zeit 05:40 17:50 21:40 - 07:00 - - - 08:10 08:00
Minimum _ 17,6 °C 35 % 1012,7 hPa - 0,0 km/h - - - 14,8 °C 0 %
_ Max-Zeit 17:00 07:00 12:00 03:20 08:10 11:50 13:20 13:30 16:50 11:40
Maximum _ 34,0 °C 93 % 1021,4 hPa 1,0 l/m² 16,1 km/h
NW
10 min 7,2 UV-I 822 W/m² 33,9 °C 100 %
Durchschnitt _ 24,3 °C 67 % 1017,5 hPa #4,4 l/m² 2,5 km/h #4:40 h 3,3 UV-I 199 W/m² 24,0 °C 98 %